createdAt,value
2023-03-21T00:01:05.268Z,17.67
2023-03-21T00:03:34.177Z,17.90
2023-03-21T00:06:09.443Z,14.50
2023-03-21T00:08:36.470Z,18.13
2023-03-21T00:11:06.340Z,18.73
2023-03-21T00:13:38.551Z,16.75
2023-03-21T00:16:16.123Z,16.55
2023-03-21T00:18:52.775Z,18.15
2023-03-21T00:24:09.453Z,26.30
2023-03-21T00:26:38.390Z,16.80
2023-03-21T00:29:05.520Z,19.58
2023-03-21T00:31:32.591Z,18.40
2023-03-21T00:34:00.116Z,15.90
2023-03-21T00:36:27.192Z,16.27
2023-03-21T00:38:54.563Z,19.95
2023-03-21T00:41:39.137Z,19.67
2023-03-21T00:44:09.626Z,16.92
2023-03-21T00:46:45.561Z,15.43
2023-03-21T00:49:16.262Z,16.50
2023-03-21T00:51:43.938Z,18.85
2023-03-21T00:54:12.850Z,20.83
2023-03-21T00:56:41.241Z,16.88
2023-03-21T00:59:08.255Z,18.35
2023-03-21T01:01:36.637Z,23.33
2023-03-21T01:04:10.961Z,16.77
2023-03-21T01:06:39.725Z,20.17
2023-03-21T01:09:08.181Z,17.92
2023-03-21T01:11:36.559Z,21.55
2023-03-21T01:14:20.846Z,17.05
2023-03-21T01:16:50.408Z,18.02
2023-03-21T01:19:27.444Z,18.92
2023-03-21T01:21:56.051Z,18.73
2023-03-21T01:24:24.242Z,19.77
2023-03-21T01:26:51.276Z,21.23
2023-03-21T01:29:18.509Z,17.00
2023-03-21T01:31:45.710Z,20.67
2023-03-21T01:34:12.884Z,18.77
2023-03-21T01:36:40.119Z,17.98
2023-03-21T01:39:11.615Z,22.25
2023-03-21T01:41:44.670Z,22.90
2023-03-21T01:44:54.585Z,24.10
2023-03-21T01:47:22.088Z,19.13
2023-03-21T01:52:42.040Z,23.77
2023-03-21T01:55:17.272Z,20.90
2023-03-21T01:58:05.826Z,20.48
2023-03-21T02:00:57.041Z,21.70
2023-03-21T02:03:38.737Z,21.05
2023-03-21T02:06:38.544Z,23.73
2023-03-21T02:09:28.246Z,21.17
2023-03-21T02:11:55.933Z,18.25
2023-03-21T02:14:29.653Z,18.27
2023-03-21T02:17:40.148Z,20.10
2023-03-21T02:20:35.377Z,22.48
2023-03-21T02:23:32.598Z,17.55
2023-03-21T02:26:41.256Z,20.13
2023-03-21T02:29:18.038Z,21.85
2023-03-21T02:32:22.678Z,25.48
2023-03-21T02:35:26.615Z,19.10
2023-03-21T02:38:00.777Z,17.80
2023-03-21T02:40:38.025Z,19.13
2023-03-21T02:43:22.487Z,19.48
2023-03-21T02:46:07.763Z,20.27
2023-03-21T02:48:50.238Z,19.05
2023-03-21T02:51:22.725Z,22.38
2023-03-21T02:54:26.438Z,19.55
2023-03-21T02:56:53.819Z,19.13
2023-03-21T02:59:25.278Z,20.55
2023-03-21T03:01:56.435Z,17.50
2023-03-21T03:04:29.536Z,28.57
2023-03-21T03:06:58.863Z,23.27
2023-03-21T03:09:49.644Z,20.98
2023-03-21T03:12:19.310Z,18.58
2023-03-21T03:15:04.430Z,21.63
2023-03-21T03:17:51.030Z,23.98
2023-03-21T03:20:18.216Z,20.77
2023-03-21T03:22:55.037Z,20.35
2023-03-21T03:25:49.133Z,23.88
2023-03-21T03:28:23.251Z,21.35
2023-03-21T03:31:08.246Z,23.23
2023-03-21T03:33:48.433Z,18.52
2023-03-21T03:36:33.578Z,22.13
2023-03-21T03:39:09.177Z,23.17
2023-03-21T03:42:15.445Z,21.98
2023-03-21T03:44:53.534Z,22.15
2023-03-21T03:47:38.031Z,24.38
2023-03-21T03:50:41.160Z,20.35
2023-03-21T03:53:46.791Z,20.80
2023-03-21T03:56:14.595Z,24.08
2023-03-21T03:58:45.995Z,22.10
2023-03-21T04:01:17.748Z,23.05
2023-03-21T04:03:52.967Z,22.65
2023-03-21T04:06:29.058Z,20.17
2023-03-21T04:08:57.262Z,19.73
2023-03-21T04:11:24.493Z,25.75
2023-03-21T04:13:53.997Z,26.33
2023-03-21T04:16:23.594Z,23.52
2023-03-21T04:18:52.631Z,19.38
2023-03-21T04:21:20.115Z,20.13
2023-03-21T04:23:47.106Z,22.30
2023-03-21T04:26:14.173Z,22.05
2023-03-21T04:28:51.423Z,26.10
2023-03-21T04:31:26.001Z,27.13
2023-03-21T04:34:05.990Z,25.45
2023-03-21T04:36:39.431Z,30.02
2023-03-21T04:39:12.663Z,23.83
2023-03-21T04:41:42.655Z,23.33
2023-03-21T04:44:11.888Z,26.80
2023-03-21T04:46:40.253Z,24.90
2023-03-21T04:49:08.547Z,25.45
2023-03-21T04:51:36.286Z,25.58
2023-03-21T04:56:36.403Z,24.50
2023-03-21T04:59:11.678Z,25.63
2023-03-21T05:01:41.347Z,26.73
2023-03-21T05:04:10.519Z,32.03
2023-03-21T05:06:38.421Z,26.52
2023-03-21T05:09:07.205Z,29.80
2023-03-21T05:11:38.043Z,26.65
2023-03-21T05:14:06.565Z,25.60
2023-03-21T05:16:34.902Z,29.85
2023-03-21T05:19:06.247Z,26.90
2023-03-21T05:21:42.224Z,26.75
2023-03-21T05:24:20.147Z,27.77
2023-03-21T05:26:52.526Z,35.35
2023-03-21T05:29:23.088Z,28.95
2023-03-21T05:31:56.502Z,25.98
2023-03-21T05:34:24.665Z,30.10
2023-03-21T05:36:52.036Z,27.00
2023-03-21T05:39:20.057Z,26.88
2023-03-21T05:41:59.296Z,25.00
2023-03-21T05:44:27.215Z,33.35
2023-03-21T05:46:54.365Z,26.35
2023-03-21T05:49:27.310Z,23.60
2023-03-21T05:51:58.716Z,23.95
2023-03-21T05:54:25.930Z,30.55
2023-03-21T05:56:52.997Z,26.45
2023-03-21T05:59:42.801Z,29.02
2023-03-21T06:02:09.879Z,30.17
2023-03-21T06:04:37.573Z,30.13
2023-03-21T06:07:04.816Z,29.83
2023-03-21T06:09:32.288Z,30.55
2023-03-21T06:12:01.998Z,29.35
2023-03-21T06:14:39.393Z,26.13
2023-03-21T06:20:02.238Z,28.65
2023-03-21T06:22:32.790Z,29.48
2023-03-21T06:25:00.887Z,34.53
2023-03-21T06:27:28.722Z,34.00
2023-03-21T06:29:58.165Z,34.17
2023-03-21T06:32:26.702Z,28.33
2023-03-21T06:35:02.228Z,29.90
2023-03-21T06:37:29.278Z,31.55
2023-03-21T06:39:56.895Z,34.35
2023-03-21T06:42:24.445Z,29.80
2023-03-21T06:44:53.211Z,29.77
2023-03-21T06:47:21.068Z,33.33
2023-03-21T06:49:48.098Z,28.80
2023-03-21T06:52:15.149Z,31.58
2023-03-21T06:54:43.276Z,30.00
2023-03-21T06:57:13.619Z,32.03
2023-03-21T06:59:42.147Z,28.20
2023-03-21T07:02:16.128Z,28.02
2023-03-21T07:04:54.463Z,28.80
2023-03-21T07:07:26.495Z,29.77
2023-03-21T07:09:53.561Z,32.90
2023-03-21T07:12:20.942Z,28.65
2023-03-21T07:15:09.281Z,29.85
2023-03-21T07:17:37.585Z,32.35
2023-03-21T07:20:13.316Z,28.30
2023-03-21T07:22:41.155Z,33.92
2023-03-21T07:25:09.320Z,33.03
2023-03-21T07:27:41.244Z,28.77
2023-03-21T07:30:10.540Z,30.02
2023-03-21T07:32:38.253Z,30.90
2023-03-21T07:35:12.110Z,30.80
2023-03-21T07:37:40.407Z,27.13
2023-03-21T07:40:13.373Z,26.80
2023-03-21T07:42:42.048Z,26.65
2023-03-21T07:45:16.557Z,30.02
2023-03-21T07:47:45.837Z,27.42
2023-03-21T07:50:13.607Z,27.38
2023-03-21T07:52:40.577Z,25.50
2023-03-21T07:55:08.231Z,22.73
2023-03-21T07:57:35.779Z,24.30
2023-03-21T08:00:05.563Z,29.80
2023-03-21T08:02:40.265Z,26.50
2023-03-21T08:05:08.307Z,27.55
2023-03-21T08:07:35.277Z,24.50
2023-03-21T08:10:02.338Z,27.27
2023-03-21T08:12:29.375Z,25.73
2023-03-21T08:14:57.011Z,21.25
2023-03-21T08:17:25.633Z,23.48
2023-03-21T08:19:52.651Z,25.15
2023-03-21T08:22:19.721Z,27.70
2023-03-21T08:24:46.748Z,25.08
2023-03-21T08:27:14.167Z,23.60
2023-03-21T08:29:42.530Z,20.65
2023-03-21T08:32:09.513Z,19.05
2023-03-21T08:34:36.734Z,17.15
2023-03-21T08:37:04.450Z,16.67
2023-03-21T08:39:31.468Z,17.65
2023-03-21T08:41:58.643Z,20.00
2023-03-21T08:44:26.172Z,15.13
2023-03-21T08:46:53.661Z,20.63
2023-03-21T08:49:20.885Z,19.05
2023-03-21T08:51:47.897Z,17.20
2023-03-21T08:54:22.124Z,17.33
2023-03-21T08:56:49.609Z,19.65
2023-03-21T08:59:16.684Z,23.98
2023-03-21T09:01:43.723Z,17.23
2023-03-21T09:04:11.271Z,14.70
2023-03-21T09:06:41.160Z,16.05
2023-03-21T09:09:09.487Z,15.77
2023-03-21T09:11:36.635Z,13.70
2023-03-21T09:14:03.707Z,10.63
2023-03-21T09:16:31.465Z,12.23
2023-03-21T09:18:59.378Z,15.10
2023-03-21T09:21:28.219Z,11.27
2023-03-21T09:23:58.711Z,20.52
2023-03-21T09:26:27.990Z,9.88
2023-03-21T09:28:56.511Z,11.60
2023-03-21T09:31:23.771Z,11.00
2023-03-21T09:33:52.420Z,10.93
2023-03-21T09:36:21.251Z,11.38
2023-03-21T09:38:50.196Z,14.25
2023-03-21T09:41:29.284Z,12.35
2023-03-21T09:44:04.979Z,11.73
2023-03-21T09:46:39.079Z,11.20
2023-03-21T09:49:13.114Z,11.15
2023-03-21T09:51:46.256Z,9.38
2023-03-21T09:54:34.023Z,8.75
2023-03-21T09:57:21.070Z,9.10
2023-03-21T09:59:50.713Z,10.52
2023-03-21T10:02:36.928Z,8.73
2023-03-21T10:05:13.257Z,7.03
2023-03-21T10:07:47.886Z,8.43
2023-03-21T10:10:27.791Z,8.75
2023-03-21T10:12:56.396Z,7.22
2023-03-21T10:15:26.298Z,7.97
2023-03-21T10:18:01.258Z,9.48
2023-03-21T10:20:34.325Z,10.18
2023-03-21T10:23:06.802Z,9.68
2023-03-21T10:25:41.305Z,9.02
2023-03-21T10:28:15.508Z,9.07
2023-03-21T10:30:54.027Z,8.40
2023-03-21T10:33:24.896Z,10.15
2023-03-21T10:35:55.714Z,11.40
2023-03-21T10:38:25.670Z,9.02
2023-03-21T10:40:53.226Z,10.73
2023-03-21T10:43:26.124Z,12.70
2023-03-21T10:45:55.099Z,12.90
2023-03-21T10:48:23.203Z,12.82
2023-03-21T10:50:54.544Z,10.70
2023-03-21T10:53:35.438Z,10.82
2023-03-21T10:56:06.772Z,14.65
2023-03-21T10:58:39.640Z,20.13
2023-03-21T11:01:14.912Z,14.93
2023-03-21T11:03:47.069Z,11.48
2023-03-21T11:06:26.674Z,15.05
2023-03-21T11:09:02.582Z,13.67
2023-03-21T11:11:40.676Z,13.18
2023-03-21T11:14:24.031Z,11.88
2023-03-21T11:16:51.776Z,12.80
2023-03-21T11:19:39.227Z,12.93
2023-03-21T11:22:08.382Z,13.13
2023-03-21T11:24:36.758Z,13.25
2023-03-21T11:27:08.324Z,13.05
2023-03-21T11:29:39.103Z,15.23
2023-03-21T11:32:21.802Z,14.95
2023-03-21T11:35:11.151Z,12.90
2023-03-21T11:37:47.836Z,15.73
2023-03-21T11:40:26.192Z,12.82
2023-03-21T11:42:56.084Z,12.90
2023-03-21T11:45:29.441Z,11.55
2023-03-21T11:47:58.804Z,10.18
2023-03-21T11:50:35.321Z,11.23
2023-03-21T11:53:32.193Z,9.35
2023-03-21T11:55:59.260Z,10.10
2023-03-21T11:59:01.729Z,15.50
2023-03-21T12:02:12.876Z,9.80
2023-03-21T12:04:57.485Z,11.20
2023-03-21T12:07:24.511Z,16.23
2023-03-21T12:10:11.022Z,10.05
2023-03-21T12:13:35.571Z,9.20
2023-03-21T12:16:09.443Z,8.93
2023-03-21T12:18:51.409Z,10.77
2023-03-21T12:21:40.820Z,14.48
2023-03-21T12:24:41.838Z,11.38
2023-03-21T12:27:30.471Z,8.85
2023-03-21T12:30:32.077Z,11.35
2023-03-21T12:33:25.249Z,12.18
2023-03-21T12:36:13.233Z,9.82
2023-03-21T12:38:51.606Z,9.38
2023-03-21T12:41:25.725Z,10.07
2023-03-21T12:44:03.816Z,13.05
2023-03-21T12:46:40.485Z,9.00
2023-03-21T12:49:33.897Z,9.35
2023-03-21T12:52:12.335Z,9.13
2023-03-21T12:54:49.554Z,7.78
2023-03-21T12:57:23.533Z,9.02
2023-03-21T13:00:00.086Z,8.90
2023-03-21T13:02:31.972Z,9.02
2023-03-21T13:05:07.176Z,10.73
2023-03-21T13:07:42.589Z,8.45
2023-03-21T13:10:16.580Z,12.65
2023-03-21T13:13:02.113Z,10.75
2023-03-21T13:15:48.684Z,9.80
2023-03-21T13:18:34.129Z,9.73
2023-03-21T13:21:21.410Z,8.73
2023-03-21T13:24:16.504Z,8.77
2023-03-21T13:26:51.435Z,7.93
2023-03-21T13:29:28.733Z,9.02
2023-03-21T13:32:08.262Z,9.25
2023-03-21T13:34:38.316Z,8.87
2023-03-21T13:37:05.696Z,8.23
2023-03-21T13:39:32.920Z,10.90
2023-03-21T13:42:05.959Z,9.98
2023-03-21T13:44:42.191Z,9.23
2023-03-21T13:48:06.600Z,9.27
2023-03-21T13:51:00.730Z,8.63
2023-03-21T13:53:40.602Z,9.07
2023-03-21T13:56:12.223Z,9.35
2023-03-21T13:58:45.082Z,9.52
2023-03-21T14:01:27.357Z,9.35
2023-03-21T14:04:01.430Z,8.75
2023-03-21T14:06:54.340Z,14.85
2023-03-21T14:09:24.936Z,13.00
2023-03-21T14:11:56.602Z,8.32
2023-03-21T14:14:30.107Z,9.35
2023-03-21T14:16:57.249Z,10.82
2023-03-21T14:19:33.029Z,9.30
2023-03-21T14:22:00.106Z,11.00
2023-03-21T14:24:27.171Z,11.60
2023-03-21T14:26:56.122Z,10.07
2023-03-21T14:29:31.884Z,10.32
2023-03-21T14:32:00.485Z,9.40
2023-03-21T14:34:30.849Z,9.90
2023-03-21T14:39:33.673Z,11.95
2023-03-21T14:42:09.663Z,17.50
2023-03-21T14:44:57.040Z,14.30
2023-03-21T14:47:27.941Z,32.80
2023-03-21T14:49:56.566Z,12.27
2023-03-21T14:52:31.856Z,15.13
2023-03-21T14:55:01.042Z,26.98
2023-03-21T14:57:31.461Z,17.30
2023-03-21T15:02:39.011Z,12.95
2023-03-21T15:05:29.269Z,10.55
2023-03-21T15:07:59.905Z,13.27
2023-03-21T15:10:30.983Z,10.48
2023-03-21T15:13:01.479Z,13.88
2023-03-21T15:18:03.676Z,14.35
2023-03-21T15:20:34.373Z,13.05
2023-03-21T15:23:12.164Z,14.55
2023-03-21T15:25:40.330Z,14.38
2023-03-21T15:28:07.736Z,13.43
2023-03-21T15:30:35.638Z,13.73
2023-03-21T15:33:09.479Z,14.25
2023-03-21T15:35:41.196Z,11.65
2023-03-21T15:38:36.715Z,13.82
2023-03-21T15:41:22.017Z,14.93
2023-03-21T15:44:09.320Z,12.90
2023-03-21T15:46:43.767Z,12.98
2023-03-21T15:49:13.642Z,13.40
2023-03-21T15:51:46.792Z,12.90
2023-03-21T15:54:19.266Z,12.55
2023-03-21T15:56:46.467Z,15.23
2023-03-21T15:59:18.303Z,13.15
2023-03-21T16:01:49.944Z,13.18
2023-03-21T16:04:20.577Z,13.35
2023-03-21T16:07:05.411Z,13.50
2023-03-21T16:09:42.799Z,13.40
2023-03-21T16:12:12.901Z,13.95
2023-03-21T16:14:40.699Z,14.07
2023-03-21T16:17:35.748Z,18.17
2023-03-21T16:20:03.651Z,17.40
2023-03-21T16:22:35.032Z,16.30
2023-03-21T16:25:02.134Z,15.48
2023-03-21T16:27:29.204Z,11.60
2023-03-21T16:29:56.381Z,13.18
2023-03-21T16:32:24.156Z,13.48
2023-03-21T16:34:53.879Z,11.38
2023-03-21T16:37:21.703Z,11.23
2023-03-21T16:39:48.869Z,12.85
2023-03-21T16:42:16.186Z,12.80
2023-03-21T16:44:43.255Z,13.10
2023-03-21T16:47:17.050Z,12.77
2023-03-21T16:49:44.940Z,13.82
2023-03-21T16:52:13.175Z,13.45
2023-03-21T16:54:41.457Z,13.02
2023-03-21T16:57:19.752Z,13.10
2023-03-21T16:59:46.795Z,13.45
2023-03-21T17:02:17.067Z,13.32
2023-03-21T17:04:44.751Z,12.93
2023-03-21T17:07:16.723Z,13.38
2023-03-21T17:09:44.017Z,12.88
2023-03-21T17:12:13.959Z,14.25
2023-03-21T17:14:45.475Z,14.57
2023-03-21T17:17:17.167Z,14.25
2023-03-21T17:19:44.179Z,15.18
2023-03-21T17:22:13.416Z,15.27
2023-03-21T17:27:08.874Z,16.63
2023-03-21T17:29:35.941Z,16.90
2023-03-21T17:32:03.150Z,16.35
2023-03-21T17:34:32.707Z,17.85
2023-03-21T17:36:59.753Z,18.75
2023-03-21T17:39:28.828Z,20.08
2023-03-21T17:41:57.065Z,19.02
2023-03-21T17:44:24.117Z,17.95
2023-03-21T17:46:52.234Z,20.27
2023-03-21T17:49:20.185Z,19.73
2023-03-21T17:51:47.263Z,21.52
2023-03-21T17:54:14.384Z,20.38
2023-03-21T17:56:42.270Z,16.85
2023-03-21T17:59:13.246Z,18.90
2023-03-21T18:01:40.836Z,18.45
2023-03-21T18:04:08.303Z,16.00
2023-03-21T18:06:36.262Z,17.90
2023-03-21T18:09:07.249Z,18.40
2023-03-21T18:11:34.394Z,18.48
2023-03-21T18:14:15.346Z,19.70
2023-03-21T18:16:43.120Z,19.90
2023-03-21T18:19:13.312Z,20.40
2023-03-21T18:21:45.878Z,22.05
2023-03-21T18:24:14.398Z,24.48
2023-03-21T18:26:43.018Z,24.52
2023-03-21T18:32:06.959Z,22.65
2023-03-21T18:34:37.190Z,22.65
2023-03-21T18:37:07.590Z,22.02
2023-03-21T18:42:04.526Z,23.02
2023-03-21T18:44:37.650Z,22.23
2023-03-21T18:47:06.848Z,22.02
2023-03-21T18:52:21.488Z,26.08
2023-03-21T18:54:49.115Z,25.25
2023-03-21T18:57:35.728Z,29.48
2023-03-21T19:00:11.140Z,32.50
2023-03-21T19:02:43.180Z,32.92
2023-03-21T19:05:12.871Z,30.55
2023-03-21T19:07:39.993Z,31.40
2023-03-21T19:10:17.445Z,33.03
2023-03-21T19:12:45.466Z,33.90
2023-03-21T19:15:12.544Z,36.50
2023-03-21T19:20:27.339Z,32.63
2023-03-21T19:22:54.512Z,34.90
2023-03-21T19:25:21.943Z,34.45
2023-03-21T19:27:51.117Z,35.38
2023-03-21T19:30:19.698Z,37.65
2023-03-21T19:32:47.260Z,35.10
2023-03-21T19:35:14.548Z,34.42
2023-03-21T19:37:41.829Z,38.88
2023-03-21T19:40:10.408Z,39.83
2023-03-21T19:42:37.784Z,35.22
2023-03-21T19:45:05.778Z,38.83
2023-03-21T19:47:32.928Z,41.42
2023-03-21T19:50:43.910Z,38.30
2023-03-21T19:52:47.183Z,39.15
2023-03-21T19:55:15.124Z,41.15
2023-03-21T19:57:42.222Z,46.70
2023-03-21T20:00:11.645Z,41.10
2023-03-21T20:02:39.883Z,42.92
2023-03-21T20:05:08.515Z,43.17
2023-03-21T20:07:35.991Z,42.28
2023-03-21T20:10:03.532Z,42.85
2023-03-21T20:12:32.336Z,47.03
2023-03-21T20:15:12.166Z,45.63
2023-03-21T20:17:44.117Z,44.78
2023-03-21T20:20:14.644Z,45.63
2023-03-21T20:23:05.850Z,46.75
2023-03-21T20:25:30.283Z,49.80
2023-03-21T20:28:14.602Z,48.97
2023-03-21T20:30:50.828Z,47.72
2023-03-21T20:33:18.020Z,50.20
2023-03-21T20:36:29.509Z,53.85
2023-03-21T20:38:34.388Z,51.08
2023-03-21T20:41:03.449Z,50.15
2023-03-21T20:46:18.541Z,55.10
2023-03-21T20:48:48.952Z,53.30
2023-03-21T20:54:03.795Z,50.88
2023-03-21T20:56:30.908Z,49.85
2023-03-21T20:59:15.263Z,50.95
2023-03-21T21:01:45.543Z,51.35
2023-03-21T21:04:19.306Z,52.20
2023-03-21T21:06:50.083Z,48.85
2023-03-21T21:09:17.473Z,56.22
2023-03-21T21:14:31.542Z,54.58
2023-03-21T21:17:02.577Z,55.05
2023-03-21T21:19:35.337Z,51.38
2023-03-21T21:22:02.369Z,51.03
2023-03-21T21:24:29.369Z,55.30
2023-03-21T21:26:56.367Z,53.30
2023-03-21T21:29:23.362Z,56.58
2023-03-21T21:31:51.127Z,49.38
2023-03-21T21:34:20.041Z,49.38
2023-03-21T21:36:47.523Z,54.63
2023-03-21T21:39:17.856Z,49.97
2023-03-21T21:44:11.965Z,50.70
2023-03-21T21:46:39.118Z,51.45
2023-03-21T21:49:06.255Z,52.88
2023-03-21T21:51:34.304Z,51.10
2023-03-21T21:54:04.039Z,50.35
2023-03-21T21:56:38.720Z,51.90
2023-03-21T21:59:05.758Z,49.88
2023-03-21T22:01:38.833Z,52.72
2023-03-21T22:04:11.005Z,54.78
2023-03-21T22:06:38.229Z,52.38
2023-03-21T22:09:05.651Z,50.95
2023-03-21T22:11:33.194Z,50.17
2023-03-21T22:14:00.127Z,51.13
2023-03-21T22:16:27.234Z,56.85
2023-03-21T22:18:54.444Z,61.35
2023-03-21T22:21:21.394Z,57.80
2023-03-21T22:23:48.494Z,60.97
2023-03-21T22:26:15.678Z,61.33
2023-03-21T22:28:43.514Z,61.92
2023-03-21T22:31:16.197Z,58.22
2023-03-21T22:33:43.907Z,64.55
2023-03-21T22:36:11.460Z,62.10
2023-03-21T22:38:38.730Z,65.50
2023-03-21T22:41:06.676Z,66.75
2023-03-21T22:43:35.538Z,65.13
2023-03-21T22:46:04.134Z,66.97
2023-03-21T22:48:31.392Z,67.45
2023-03-21T22:50:59.654Z,69.95
2023-03-21T22:53:27.041Z,67.82
2023-03-21T22:55:54.343Z,68.97
2023-03-21T22:58:21.497Z,67.72
2023-03-21T23:00:48.732Z,67.07
2023-03-21T23:03:17.123Z,67.65
2023-03-21T23:05:45.132Z,68.75
2023-03-21T23:08:13.300Z,75.68
2023-03-21T23:10:43.965Z,69.28
2023-03-21T23:13:11.309Z,66.15
2023-03-21T23:15:41.241Z,73.40
2023-03-21T23:18:08.613Z,70.18
2023-03-21T23:20:36.319Z,68.65
2023-03-21T23:23:03.354Z,77.13
2023-03-21T23:25:30.546Z,74.30
2023-03-21T23:27:57.792Z,78.35
2023-03-21T23:30:24.910Z,69.72
2023-03-21T23:32:52.579Z,76.50
2023-03-21T23:35:19.773Z,76.82
2023-03-21T23:37:52.385Z,80.70
2023-03-21T23:40:20.963Z,70.80
2023-03-21T23:42:48.039Z,72.47
2023-03-21T23:45:15.737Z,72.57
2023-03-21T23:47:43.181Z,71.05
2023-03-21T23:50:11.208Z,77.60
2023-03-21T23:52:38.872Z,72.20
2023-03-21T23:55:07.405Z,73.80
2023-03-21T23:57:34.782Z,77.45
